createdAt,value
2018-06-11T00:01:37.033Z,99.90
2018-06-11T00:04:05.320Z,99.90
2018-06-11T00:06:33.564Z,99.90
2018-06-11T00:09:01.837Z,99.90
2018-06-11T00:11:30.113Z,99.90
2018-06-11T00:13:58.392Z,99.90
2018-06-11T00:16:26.671Z,99.90
2018-06-11T00:18:54.906Z,99.90
2018-06-11T00:21:23.178Z,99.90
2018-06-11T00:23:51.407Z,99.90
2018-06-11T00:26:19.712Z,99.90
2018-06-11T00:28:48.116Z,99.90
2018-06-11T00:31:16.407Z,99.90
2018-06-11T00:33:44.643Z,99.90
2018-06-11T00:36:12.938Z,99.90
2018-06-11T00:38:41.176Z,99.90
2018-06-11T00:41:09.477Z,99.90
2018-06-11T00:43:37.783Z,99.90
2018-06-11T00:46:06.068Z,99.90
2018-06-11T00:48:34.421Z,99.90
2018-06-11T00:51:03.593Z,99.90
2018-06-11T00:53:31.875Z,99.90
2018-06-11T00:56:09.944Z,99.90
2018-06-11T00:58:38.299Z,99.90
2018-06-11T01:01:06.644Z,99.90
2018-06-11T01:03:35.018Z,99.90
2018-06-11T01:06:03.300Z,99.90
2018-06-11T01:08:31.575Z,99.90
2018-06-11T01:10:59.875Z,99.90
2018-06-11T01:13:28.162Z,99.90
2018-06-11T01:15:56.468Z,99.90
2018-06-11T01:18:24.745Z,99.90
2018-06-11T01:20:53.027Z,99.90
2018-06-11T01:23:21.315Z,99.90
2018-06-11T01:25:49.594Z,99.90
2018-06-11T01:28:17.851Z,99.90
2018-06-11T01:30:46.153Z,99.90
2018-06-11T01:33:14.380Z,99.90
2018-06-11T01:35:42.641Z,99.90
2018-06-11T01:38:10.878Z,99.90
2018-06-11T01:40:39.193Z,99.90
2018-06-11T01:43:07.480Z,99.90
2018-06-11T01:45:35.806Z,99.90
2018-06-11T01:48:04.103Z,99.90
2018-06-11T01:50:32.371Z,99.90
2018-06-11T01:53:00.617Z,99.90
2018-06-11T01:55:28.879Z,99.90
2018-06-11T01:57:57.168Z,99.90
2018-06-11T02:00:25.563Z,99.90
2018-06-11T02:02:53.857Z,99.90
2018-06-11T02:07:50.112Z,99.90
2018-06-11T02:10:18.440Z,99.90
2018-06-11T02:12:46.744Z,99.90
2018-06-11T02:15:15.053Z,99.90
2018-06-11T02:17:43.319Z,99.90
2018-06-11T02:20:11.595Z,99.90
2018-06-11T02:22:39.868Z,99.90
2018-06-11T02:25:08.098Z,99.90
2018-06-11T02:27:36.388Z,99.90
2018-06-11T02:30:05.149Z,99.90
2018-06-11T02:32:33.403Z,99.90
2018-06-11T02:35:01.760Z,99.90
2018-06-11T02:37:30.077Z,99.90
2018-06-11T02:39:58.359Z,99.90
2018-06-11T02:42:26.665Z,99.90
2018-06-11T02:44:54.958Z,99.90
2018-06-11T02:47:23.246Z,99.90
2018-06-11T02:49:51.499Z,99.90
2018-06-11T02:52:19.755Z,99.90
2018-06-11T02:54:48.197Z,99.90
2018-06-11T02:57:16.482Z,99.90
2018-06-11T02:59:44.782Z,99.90
2018-06-11T03:02:13.093Z,99.90
2018-06-11T03:04:41.362Z,99.90
2018-06-11T03:07:09.626Z,99.90
2018-06-11T03:09:37.941Z,99.90
2018-06-11T03:12:06.222Z,99.90
2018-06-11T03:14:34.503Z,99.90
2018-06-11T03:17:02.774Z,99.90
2018-06-11T03:19:30.992Z,99.90
2018-06-11T03:21:59.295Z,99.90
2018-06-11T03:24:27.548Z,99.90
2018-06-11T03:26:55.812Z,99.90
2018-06-11T03:29:24.111Z,99.90
2018-06-11T03:31:52.358Z,99.90
2018-06-11T03:34:20.650Z,99.90
2018-06-11T03:36:48.939Z,99.90
2018-06-11T03:39:17.213Z,99.90
2018-06-11T03:41:45.483Z,99.90
2018-06-11T03:44:13.744Z,99.90
2018-06-11T03:46:41.988Z,99.90
2018-06-11T03:49:10.283Z,99.90
2018-06-11T03:51:38.598Z,99.90
2018-06-11T03:54:07.106Z,99.90
2018-06-11T03:59:03.399Z,99.90
2018-06-11T04:01:31.695Z,99.90
2018-06-11T04:03:59.956Z,99.90
2018-06-11T04:06:28.235Z,99.90
2018-06-11T04:08:56.572Z,99.90
2018-06-11T04:11:24.831Z,99.90
2018-06-11T04:13:53.899Z,99.90
2018-06-11T04:16:22.133Z,99.90
2018-06-11T04:18:50.637Z,99.90
2018-06-11T04:21:18.900Z,99.90
2018-06-11T04:23:47.158Z,99.90
2018-06-11T04:26:15.495Z,99.90
2018-06-11T04:28:43.768Z,99.90
2018-06-11T04:31:12.069Z,99.90
2018-06-11T04:33:40.404Z,99.90
2018-06-11T04:36:08.647Z,99.90
2018-06-11T04:38:36.890Z,99.90
2018-06-11T04:41:05.119Z,99.90
2018-06-11T04:43:33.467Z,99.90
2018-06-11T04:46:01.701Z,99.90
2018-06-11T04:48:29.974Z,99.90
2018-06-11T04:50:58.250Z,99.90
2018-06-11T04:53:26.533Z,99.90
2018-06-11T04:55:54.823Z,99.90
2018-06-11T04:58:23.101Z,99.90
2018-06-11T05:00:51.435Z,99.90
2018-06-11T05:03:19.922Z,99.90
2018-06-11T05:05:48.193Z,99.90
2018-06-11T05:08:16.453Z,99.90
2018-06-11T05:10:44.753Z,99.90
2018-06-11T05:13:13.057Z,99.90
2018-06-11T05:15:41.328Z,99.90
2018-06-11T05:18:09.955Z,99.90
2018-06-11T05:20:38.222Z,99.90
2018-06-11T05:23:06.478Z,99.90
2018-06-11T05:25:34.784Z,99.90
2018-06-11T05:28:03.086Z,99.90
2018-06-11T05:30:31.392Z,99.90
2018-06-11T05:32:59.674Z,99.90
2018-06-11T05:35:27.988Z,99.90
2018-06-11T05:37:56.309Z,99.90
2018-06-11T05:40:24.683Z,99.90
2018-06-11T05:42:52.903Z,99.90
2018-06-11T05:45:21.194Z,99.90
2018-06-11T05:47:49.528Z,99.90
2018-06-11T05:50:17.805Z,99.90
2018-06-11T05:52:46.090Z,99.90
2018-06-11T05:55:14.485Z,99.90
2018-06-11T05:57:42.768Z,99.90
2018-06-11T06:00:11.151Z,99.90
2018-06-11T06:02:39.389Z,99.90
2018-06-11T06:07:35.841Z,99.90
2018-06-11T06:12:32.171Z,99.90
2018-06-11T06:15:00.412Z,99.90
2018-06-11T06:17:28.722Z,99.90
2018-06-11T06:19:57.043Z,99.90
2018-06-11T06:22:25.326Z,99.90
2018-06-11T06:24:53.656Z,99.90
2018-06-11T06:27:21.915Z,99.90
2018-06-11T06:29:50.193Z,99.90
2018-06-11T06:32:18.500Z,99.90
2018-06-11T06:34:46.869Z,99.90
2018-06-11T06:37:15.092Z,99.90
2018-06-11T06:39:43.352Z,99.90
2018-06-11T06:42:11.632Z,99.90
2018-06-11T06:44:39.935Z,99.90
2018-06-11T06:47:08.140Z,99.90
2018-06-11T06:49:36.462Z,99.90
2018-06-11T06:52:04.685Z,99.90
2018-06-11T06:54:32.958Z,99.90
2018-06-11T06:57:01.237Z,99.90
2018-06-11T06:59:29.545Z,99.90
2018-06-11T07:01:57.827Z,99.90
2018-06-11T07:04:26.119Z,99.90
2018-06-11T07:06:54.360Z,99.90
2018-06-11T07:09:22.588Z,99.90
2018-06-11T07:11:50.876Z,99.90
2018-06-11T07:14:19.173Z,99.90
2018-06-11T07:16:47.448Z,99.90
2018-06-11T07:19:15.681Z,99.90
2018-06-11T07:21:43.973Z,99.90
2018-06-11T07:24:12.280Z,99.90
2018-06-11T07:26:40.524Z,99.90
2018-06-11T07:29:08.817Z,99.90
2018-06-11T07:31:37.067Z,99.90
2018-06-11T07:34:05.382Z,99.90
2018-06-11T07:36:33.680Z,99.90
2018-06-11T07:39:01.952Z,99.90
2018-06-11T07:41:30.253Z,99.90
2018-06-11T07:43:58.524Z,99.90
2018-06-11T07:46:26.847Z,99.90
2018-06-11T07:48:55.146Z,99.90
2018-06-11T07:51:23.449Z,99.90
2018-06-11T07:53:51.725Z,99.90
2018-06-11T07:56:19.991Z,99.90
2018-06-11T07:58:48.260Z,99.90
2018-06-11T08:03:44.505Z,99.90
2018-06-11T08:06:12.792Z,99.90
2018-06-11T08:11:09.030Z,99.90
2018-06-11T08:16:05.417Z,99.90
2018-06-11T08:18:33.703Z,99.90
2018-06-11T08:21:01.996Z,99.90
2018-06-11T08:23:30.213Z,99.90
2018-06-11T08:25:58.472Z,99.90
2018-06-11T08:28:26.759Z,99.90
2018-06-11T08:30:55.016Z,99.90
2018-06-11T08:33:23.272Z,99.90
2018-06-11T08:35:51.539Z,99.90
2018-06-11T08:38:20.429Z,99.90
2018-06-11T08:40:48.729Z,99.90
2018-06-11T08:43:17.039Z,99.90
2018-06-11T08:45:45.289Z,99.90
2018-06-11T08:48:13.556Z,99.90
2018-06-11T08:50:41.847Z,99.90
2018-06-11T08:53:10.116Z,99.90
2018-06-11T08:55:38.413Z,99.90
2018-06-11T08:58:06.717Z,99.90
2018-06-11T09:00:35.009Z,99.90
2018-06-11T09:03:03.279Z,99.90
2018-06-11T09:05:32.087Z,99.90
2018-06-11T09:08:00.424Z,99.90
2018-06-11T09:10:28.684Z,99.90
2018-06-11T09:12:56.936Z,99.90
2018-06-11T09:15:25.241Z,99.90
2018-06-11T09:17:53.540Z,99.90
2018-06-11T09:20:21.770Z,99.90
2018-06-11T09:22:50.055Z,99.90
2018-06-11T09:25:18.352Z,99.90
2018-06-11T09:27:46.678Z,99.90
2018-06-11T09:30:14.932Z,99.90
2018-06-11T09:32:43.232Z,99.90
2018-06-11T09:35:11.527Z,99.90
2018-06-11T09:37:39.736Z,99.90
2018-06-11T09:40:07.991Z,99.90
2018-06-11T09:45:04.302Z,99.90
2018-06-11T09:47:32.565Z,99.90
2018-06-11T09:50:00.836Z,99.90
2018-06-11T09:52:29.120Z,99.90
2018-06-11T09:54:57.402Z,99.90
2018-06-11T09:57:25.660Z,99.90
2018-06-11T09:59:53.914Z,99.90
2018-06-11T10:02:22.178Z,99.90
2018-06-11T10:04:50.469Z,99.90
2018-06-11T10:07:18.764Z,99.90
2018-06-11T10:09:47.080Z,99.90
2018-06-11T10:12:15.317Z,99.90
2018-06-11T10:14:43.632Z,99.90
2018-06-11T10:17:11.931Z,99.90
2018-06-11T10:22:08.252Z,93.50
2018-06-11T10:24:36.498Z,95.80
2018-06-11T10:27:04.787Z,94.10
2018-06-11T10:29:33.121Z,95.80
2018-06-11T10:32:01.369Z,96.40
2018-06-11T10:34:29.610Z,96.20
2018-06-11T10:36:57.941Z,95.50
2018-06-11T10:39:26.203Z,96.30
2018-06-11T10:44:23.168Z,90.90
2018-06-11T10:46:51.467Z,90.00
2018-06-11T10:49:19.732Z,89.60
2018-06-11T10:51:48.031Z,87.90
2018-06-11T10:54:16.259Z,89.30
2018-06-11T10:56:44.499Z,86.10
2018-06-11T10:59:12.800Z,89.30
2018-06-11T11:01:41.090Z,88.80
2018-06-11T11:04:09.402Z,88.20
2018-06-11T11:06:37.677Z,85.10
2018-06-11T11:09:06.679Z,80.50
2018-06-11T11:11:35.009Z,78.10
2018-06-11T11:16:31.355Z,80.80
2018-06-11T11:18:59.596Z,80.80
2018-06-11T11:21:27.870Z,78.10
2018-06-11T11:23:56.128Z,78.90
2018-06-11T11:26:24.375Z,82.00
2018-06-11T11:28:52.578Z,82.00
2018-06-11T11:31:20.835Z,79.30
2018-06-11T11:33:49.105Z,81.70
2018-06-11T11:36:17.309Z,80.80
2018-06-11T11:38:45.587Z,79.50
2018-06-11T11:41:13.867Z,77.90
2018-06-11T11:43:42.163Z,74.20
2018-06-11T11:46:11.387Z,77.20
2018-06-11T11:48:39.658Z,78.90
2018-06-11T11:51:08.084Z,82.00
2018-06-11T11:53:36.262Z,78.50
2018-06-11T11:56:04.567Z,79.80
2018-06-11T11:58:32.826Z,76.30
2018-06-11T12:01:01.121Z,79.20
2018-06-11T12:03:29.455Z,76.90
2018-06-11T12:05:58.435Z,81.00
2018-06-11T12:10:54.810Z,80.80
2018-06-11T12:13:23.142Z,76.50
2018-06-11T12:15:51.432Z,79.00
2018-06-11T12:20:47.642Z,71.70
2018-06-11T12:23:15.938Z,75.40
2018-06-11T12:28:12.309Z,76.70
2018-06-11T12:30:40.679Z,78.60
2018-06-11T12:35:37.009Z,77.50
2018-06-11T12:38:05.259Z,76.40
2018-06-11T12:40:33.530Z,82.90
2018-06-11T12:43:01.913Z,82.00
2018-06-11T12:45:30.256Z,85.90
2018-06-11T12:47:58.586Z,85.60
2018-06-11T12:50:26.874Z,86.80
2018-06-11T12:55:23.186Z,91.30
2018-06-11T12:57:51.458Z,87.30
2018-06-11T13:00:19.700Z,88.30
2018-06-11T13:02:47.996Z,90.50
2018-06-11T13:05:16.282Z,92.20
2018-06-11T13:07:44.539Z,90.80
2018-06-11T13:10:12.829Z,86.30
2018-06-11T13:12:41.073Z,86.80
2018-06-11T13:15:09.967Z,87.80
2018-06-11T13:17:38.207Z,85.00
2018-06-11T13:20:06.487Z,91.80
2018-06-11T13:22:34.812Z,88.10
2018-06-11T13:25:03.130Z,90.30
2018-06-11T13:27:31.502Z,90.50
2018-06-11T13:29:59.946Z,90.90
2018-06-11T13:32:28.329Z,91.90
2018-06-11T13:34:56.651Z,93.10
2018-06-11T13:37:24.881Z,92.80
2018-06-11T13:39:53.184Z,94.30
2018-06-11T13:42:21.556Z,93.40
2018-06-11T13:44:49.843Z,94.50
2018-06-11T13:47:18.133Z,94.80
2018-06-11T13:49:46.430Z,93.50
2018-06-11T13:52:14.696Z,95.30
2018-06-11T13:54:42.972Z,95.80
2018-06-11T13:57:11.268Z,95.20
2018-06-11T13:59:39.519Z,95.00
2018-06-11T14:02:07.849Z,94.60
2018-06-11T14:04:36.103Z,95.10
2018-06-11T14:07:04.411Z,96.10
2018-06-11T14:09:32.714Z,96.20
2018-06-11T14:12:00.981Z,96.20
2018-06-11T14:14:29.267Z,95.90
2018-06-11T14:16:57.601Z,96.00
2018-06-11T14:19:25.831Z,96.80
2018-06-11T14:21:54.313Z,95.90
2018-06-11T14:29:18.654Z,96.00
2018-06-11T14:31:46.928Z,97.90
2018-06-11T14:34:15.170Z,97.40
2018-06-11T14:36:43.442Z,97.40
2018-06-11T14:39:11.747Z,96.30
2018-06-11T14:41:40.051Z,97.60
2018-06-11T14:44:08.363Z,97.60
2018-06-11T14:46:36.647Z,98.10
2018-06-11T14:49:05.005Z,97.90
2018-06-11T14:51:33.365Z,98.30
2018-06-11T14:54:01.665Z,98.30
2018-06-11T14:56:29.959Z,99.80
2018-06-11T14:58:58.322Z,99.90
2018-06-11T15:01:26.588Z,99.90
2018-06-11T15:03:54.877Z,99.90
2018-06-11T15:06:23.224Z,99.90
2018-06-11T15:08:51.640Z,99.90
2018-06-11T15:11:19.913Z,99.90
2018-06-11T15:13:48.270Z,99.90
2018-06-11T15:16:16.605Z,99.90
2018-06-11T15:18:44.908Z,99.90
2018-06-11T15:21:13.266Z,99.90
2018-06-11T15:23:41.496Z,99.90
2018-06-11T15:26:09.783Z,99.90
2018-06-11T15:28:38.084Z,99.90
2018-06-11T15:33:34.345Z,99.90
2018-06-11T15:36:02.628Z,99.90
2018-06-11T15:38:30.894Z,99.90
2018-06-11T15:43:27.116Z,99.90
2018-06-11T15:45:55.419Z,99.90
2018-06-11T15:48:23.746Z,99.90
2018-06-11T15:50:52.090Z,99.90
2018-06-11T15:53:20.387Z,99.90
2018-06-11T15:55:48.623Z,99.90
2018-06-11T15:58:16.891Z,99.90
2018-06-11T16:00:45.137Z,99.90
2018-06-11T16:03:13.448Z,99.90
2018-06-11T16:05:41.737Z,99.90
2018-06-11T16:08:10.349Z,99.90
2018-06-11T16:10:38.659Z,99.90
2018-06-11T16:13:06.955Z,99.90
2018-06-11T16:15:35.211Z,99.90
2018-06-11T16:18:03.500Z,99.90
2018-06-11T16:22:59.832Z,99.90
2018-06-11T16:25:28.652Z,99.90
2018-06-11T16:27:56.870Z,99.90
2018-06-11T16:30:25.151Z,99.90
2018-06-11T16:32:53.429Z,99.90
2018-06-11T16:35:21.701Z,99.90
2018-06-11T16:37:50.005Z,99.90
2018-06-11T16:40:18.345Z,99.90
2018-06-11T16:42:46.609Z,99.90
2018-06-11T16:45:14.966Z,99.90
2018-06-11T16:47:43.360Z,99.90
2018-06-11T16:50:11.642Z,99.90
2018-06-11T16:52:39.865Z,99.90
2018-06-11T16:55:08.127Z,99.90
2018-06-11T16:57:36.394Z,99.90
2018-06-11T17:00:04.735Z,99.90
2018-06-11T17:02:33.042Z,99.90
2018-06-11T17:05:01.294Z,99.90
2018-06-11T17:07:29.667Z,99.90
2018-06-11T17:09:57.905Z,99.90
2018-06-11T17:12:26.158Z,99.90
2018-06-11T17:14:54.419Z,99.90
2018-06-11T17:17:22.759Z,99.90
2018-06-11T17:19:51.052Z,99.90
2018-06-11T17:22:19.348Z,99.90
2018-06-11T17:24:47.590Z,99.90
2018-06-11T17:27:15.877Z,99.90
2018-06-11T17:29:44.167Z,99.90
2018-06-11T17:32:12.442Z,99.90
2018-06-11T17:34:40.811Z,99.90
2018-06-11T17:37:09.107Z,99.90
2018-06-11T17:39:37.571Z,99.90
2018-06-11T17:42:06.466Z,99.90
2018-06-11T17:44:34.892Z,99.90
2018-06-11T17:47:03.943Z,99.90
2018-06-11T17:49:32.241Z,99.90
2018-06-11T17:52:00.534Z,99.90
2018-06-11T17:54:29.000Z,99.90
2018-06-11T17:56:57.406Z,99.90
2018-06-11T18:01:53.685Z,99.90
2018-06-11T18:04:22.132Z,99.90
2018-06-11T18:06:50.384Z,99.90
2018-06-11T18:09:19.082Z,99.90
2018-06-11T18:11:47.596Z,99.90
2018-06-11T18:14:16.074Z,99.90
2018-06-11T18:16:44.473Z,99.90
2018-06-11T18:19:13.144Z,99.90
2018-06-11T18:21:41.379Z,99.90
2018-06-11T18:24:09.657Z,99.90
2018-06-11T18:26:37.923Z,99.90
2018-06-11T18:29:06.200Z,99.90
2018-06-11T18:31:34.517Z,99.90
2018-06-11T18:34:02.934Z,99.90
2018-06-11T18:36:31.383Z,99.90
2018-06-11T18:38:59.751Z,99.90
2018-06-11T18:46:24.195Z,99.90
2018-06-11T18:48:52.581Z,99.90
2018-06-11T18:51:20.966Z,99.90
2018-06-11T18:53:49.333Z,99.90
2018-06-11T18:56:17.692Z,99.90
2018-06-11T18:58:46.053Z,99.90
2018-06-11T19:03:42.382Z,99.90
2018-06-11T19:06:10.751Z,99.90
2018-06-11T19:08:39.067Z,99.90
2018-06-11T19:11:07.576Z,99.90
2018-06-11T19:13:35.891Z,99.90
2018-06-11T19:16:04.399Z,99.90
2018-06-11T19:18:32.665Z,99.90
2018-06-11T19:21:00.970Z,99.90
2018-06-11T19:23:29.288Z,99.90
2018-06-11T19:25:57.566Z,99.90
2018-06-11T19:28:26.042Z,99.90
2018-06-11T19:30:54.392Z,99.90
2018-06-11T19:33:22.719Z,99.90
2018-06-11T19:35:51.042Z,99.90
2018-06-11T19:38:19.353Z,99.90
2018-06-11T19:40:47.714Z,99.90
2018-06-11T19:43:16.008Z,99.90
2018-06-11T19:45:44.331Z,99.90
2018-06-11T19:48:12.606Z,99.90
2018-06-11T19:50:42.479Z,99.90
2018-06-11T19:53:10.875Z,99.90
2018-06-11T19:55:39.216Z,99.90
2018-06-11T19:58:07.527Z,99.90
2018-06-11T20:00:36.094Z,99.90
2018-06-11T20:03:04.420Z,99.90
2018-06-11T20:05:32.675Z,99.90
2018-06-11T20:08:00.974Z,99.90
2018-06-11T20:10:29.253Z,99.90
2018-06-11T20:12:57.532Z,99.90
2018-06-11T20:15:25.843Z,99.90
2018-06-11T20:17:54.153Z,99.90
2018-06-11T20:20:22.455Z,99.90
2018-06-11T20:22:50.924Z,99.90
2018-06-11T20:25:19.194Z,99.90
2018-06-11T20:27:47.481Z,99.90
2018-06-11T20:30:15.745Z,99.90
2018-06-11T20:35:12.113Z,99.90
2018-06-11T20:37:40.440Z,99.90
2018-06-11T20:40:08.770Z,99.90
2018-06-11T20:42:37.059Z,99.90
2018-06-11T20:45:05.323Z,99.90
2018-06-11T20:47:33.720Z,99.90
2018-06-11T20:50:02.065Z,99.90
2018-06-11T20:54:58.438Z,99.90
2018-06-11T20:57:26.691Z,99.90
2018-06-11T20:59:54.972Z,99.90
2018-06-11T21:02:23.214Z,99.90
2018-06-11T21:04:51.470Z,99.90
2018-06-11T21:07:19.775Z,99.90
2018-06-11T21:09:48.090Z,99.90
2018-06-11T21:12:16.388Z,99.90
2018-06-11T21:14:44.692Z,99.90
2018-06-11T21:17:12.976Z,99.90
2018-06-11T21:19:41.281Z,99.90
2018-06-11T21:22:09.528Z,99.90
2018-06-11T21:24:37.780Z,99.90
2018-06-11T21:27:06.104Z,99.90
2018-06-11T21:29:34.376Z,99.90
2018-06-11T21:34:30.753Z,99.90
2018-06-11T21:36:59.072Z,99.90
2018-06-11T21:39:27.340Z,99.90
2018-06-11T21:41:55.640Z,99.90
2018-06-11T21:44:23.932Z,99.90
2018-06-11T21:49:20.236Z,99.90
2018-06-11T21:51:48.531Z,99.90
2018-06-11T21:54:16.778Z,99.90
2018-06-11T21:56:44.992Z,99.90
2018-06-11T21:59:13.289Z,99.90
2018-06-11T22:01:41.607Z,99.90
2018-06-11T22:04:09.926Z,99.90
2018-06-11T22:06:38.109Z,99.90
2018-06-11T22:11:35.511Z,99.90
2018-06-11T22:14:03.812Z,99.90
2018-06-11T22:16:32.092Z,99.90
2018-06-11T22:19:00.342Z,99.90
2018-06-11T22:21:28.620Z,99.90
2018-06-11T22:23:56.920Z,99.90
2018-06-11T22:26:25.216Z,99.90
2018-06-11T22:28:53.536Z,99.90
2018-06-11T22:31:21.815Z,99.90
2018-06-11T22:33:50.088Z,99.90
2018-06-11T22:36:18.365Z,99.90
2018-06-11T22:38:46.644Z,99.90
2018-06-11T22:41:14.918Z,99.90
2018-06-11T22:43:43.239Z,99.90
2018-06-11T22:46:11.501Z,99.90
2018-06-11T22:48:39.771Z,99.90
2018-06-11T22:51:08.058Z,99.90
2018-06-11T22:53:36.297Z,99.90
2018-06-11T22:56:04.748Z,99.90
2018-06-11T22:58:33.010Z,99.90
2018-06-11T23:01:01.286Z,99.90
2018-06-11T23:03:29.525Z,99.90
2018-06-11T23:05:57.804Z,99.90
2018-06-11T23:08:26.084Z,99.90
2018-06-11T23:10:54.385Z,99.90
2018-06-11T23:13:22.725Z,99.90
2018-06-11T23:15:51.045Z,99.90
2018-06-11T23:18:19.290Z,99.90
2018-06-11T23:20:47.553Z,99.90
2018-06-11T23:23:15.834Z,99.90
2018-06-11T23:25:44.119Z,99.90
2018-06-11T23:28:12.437Z,99.90
2018-06-11T23:30:40.678Z,99.90
2018-06-11T23:33:08.936Z,99.90
2018-06-11T23:35:37.186Z,99.90
2018-06-11T23:38:05.481Z,99.90
2018-06-11T23:40:33.756Z,99.90
2018-06-11T23:43:02.058Z,99.90
2018-06-11T23:45:30.349Z,99.90
2018-06-11T23:47:58.658Z,99.90
2018-06-11T23:52:54.987Z,99.90
2018-06-11T23:55:23.262Z,99.90
2018-06-11T23:57:51.508Z,99.90
